Romoe Maersk — OXLC2 — position and weather

sailwx.info

Track history (hours):
 
Tides and Currents Weather Stations Pressure Air Temp Water Temp Dewpoint Dewpoint Depression Visibility Wind Speed Wind Dir Waves Ship Positions

Romoe Maersk

Last reported at 2016-Jun-15 00:29 UTC. Time now 2016-Jul-01 08:17 UTC.
Position S 27°02' E 153°60'.
Warning: this ship's position is 16 days out of date.

Length 171 m; draft 7.5 m.

Type: Ship. MMSI: 220209000.

Date/timePositionNaut miles runAvg speedWind from/ knotsBaromVisibWave heightAir tempDewpointWater temp
2016-Jun-15 00:29S 27°02' E 153°60'10 6.8
2016-Jun-14 23:03S 26°56' E 153°51'3 5.4
2016-Jun-14 22:33S 26°55' E 153°48'5 5.5
2016-Jun-14 21:33S 26°51' E 153°44'5 5.0
2016-Jun-14 20:33S 26°48' E 153°39'5 4.9
2016-Jun-14 19:33S 26°47' E 153°34'5 4.8
2016-Jun-14 18:33S 26°45' E 153°29'5 5.0
2016-Jun-14 17:27S 26°43' E 153°23'4 4.7
2016-Jun-14 16:33S 26°42' E 153°19'5 4.8
2016-Jun-14 15:33S 26°41' E 153°13'8 7.6
2016-Jun-14 14:33S 26°48' E 153°11'1312.7
2016-Jun-14 13:34S 27°00' E 153°15'1111.2
2016-Jun-14 12:33S 27°11' E 153°18'1313.0
2016-Jun-14 11:33S 27°22' E 153°10'0 0.0
2016-Jun-13 11:33S 27°23' E 153°10'7 7.4
2016-Jun-13 10:33S 27°17' E 153°15'3 3.2
2016-Jun-13 09:33S 27°15' E 153°18'9 9.3
2016-Jun-13 08:33S 27°06' E 153°19'1111.3
2016-Jun-13 07:33S 26°56' E 153°12'9 9.3
2016-Jun-13 06:33S 26°47' E 153°11'5 4.5
2016-Jun-13 05:30S 26°44' E 153°16'2 1.9
2016-Jun-13 04:33S 26°45' E 153°14'0 0.0
2016-Jun-13 03:33S 26°45' E 153°14'0 0.0
2016-Jun-13 02:33S 26°45' E 153°14'0 0.0
2016-Jun-13 01:33S 26°45' E 153°14'0 0.0
2016-Jun-13 00:33S 26°45' E 153°14'0 0.0
2016-Jun-12 23:33S 26°45' E 153°14'0 0.0
2016-Jun-12 22:33S 26°45' E 153°14'0 0.0
2016-Jun-12 21:32S 26°45' E 153°14'0 0.0
2016-Jun-12 20:32S 26°45' E 153°14'0 0.0
2016-Jun-12 19:32S 26°45' E 153°14'0 0.0
2016-Jun-12 18:32S 26°45' E 153°14'0 0.0
2016-Jun-12 17:32S 26°45' E 153°14'0 0.0
2016-Jun-12 16:32S 26°45' E 153°14'0 0.0
2016-Jun-12 15:27S 26°45' E 153°14'0 0.0
2016-Jun-12 14:18S 26°45' E 153°14'0 0.0
2016-Jun-12 13:17S 26°45' E 153°14'0 0.0
2016-Jun-12 11:14S 26°45' E 153°14'0 0.0
2016-Jun-12 10:32S 26°45' E 153°14'0 0.1
2016-Jun-12 09:20S 26°45' E 153°14'  
Track history (hours):
 
Tides and Currents Weather Stations Pressure Air Temp Water Temp Dewpoint Dewpoint Depression Visibility Wind Speed Wind Dir Waves Ship Positions

Romoe Maersk

Last reported at 2016-Jun-15 00:29 UTC. Time now 2016-Jul-01 08:17 UTC.
Position S 27°02' E 153°60'.
Warning: this ship's position is 16 days out of date.

Length 171 m; draft 7.5 m.

Type: Ship. MMSI: 220209000.

Date/timePositionNaut miles runAvg speedWind from/ knotsBaromVisibWave heightAir tempDewpointWater temp
2016-Jun-15 00:29S 27°02' E 153°60'10 6.8
2016-Jun-14 23:03S 26°56' E 153°51'3 5.4
2016-Jun-14 22:33S 26°55' E 153°48'5 5.5
2016-Jun-14 21:33S 26°51' E 153°44'5 5.0
2016-Jun-14 20:33S 26°48' E 153°39'5 4.9
2016-Jun-14 19:33S 26°47' E 153°34'5 4.8
2016-Jun-14 18:33S 26°45' E 153°29'5 5.0
2016-Jun-14 17:27S 26°43' E 153°23'4 4.7
2016-Jun-14 16:33S 26°42' E 153°19'5 4.8
2016-Jun-14 15:33S 26°41' E 153°13'8 7.6
2016-Jun-14 14:33S 26°48' E 153°11'1312.7
2016-Jun-14 13:34S 27°00' E 153°15'1111.2
2016-Jun-14 12:33S 27°11' E 153°18'1313.0
2016-Jun-14 11:33S 27°22' E 153°10'0 0.0
2016-Jun-13 11:33S 27°23' E 153°10'7 7.4
2016-Jun-13 10:33S 27°17' E 153°15'3 3.2
2016-Jun-13 09:33S 27°15' E 153°18'9 9.3
2016-Jun-13 08:33S 27°06' E 153°19'1111.3
2016-Jun-13 07:33S 26°56' E 153°12'9 9.3
2016-Jun-13 06:33S 26°47' E 153°11'5 4.5
2016-Jun-13 05:30S 26°44' E 153°16'2 1.9
2016-Jun-13 04:33S 26°45' E 153°14'0 0.0
2016-Jun-13 03:33S 26°45' E 153°14'0 0.0
2016-Jun-13 02:33S 26°45' E 153°14'0 0.0
2016-Jun-13 01:33S 26°45' E 153°14'0 0.0
2016-Jun-13 00:33S 26°45' E 153°14'0 0.0
2016-Jun-12 23:33S 26°45' E 153°14'0 0.0
2016-Jun-12 22:33S 26°45' E 153°14'0 0.0
2016-Jun-12 21:32S 26°45' E 153°14'0 0.0
2016-Jun-12 20:32S 26°45' E 153°14'0 0.0
2016-Jun-12 19:32S 26°45' E 153°14'0 0.0
2016-Jun-12 18:32S 26°45' E 153°14'0 0.0
2016-Jun-12 17:32S 26°45' E 153°14'0 0.0
2016-Jun-12 16:32S 26°45' E 153°14'0 0.0
2016-Jun-12 15:27S 26°45' E 153°14'0 0.0
2016-Jun-12 14:18S 26°45' E 153°14'0 0.0
2016-Jun-12 13:17S 26°45' E 153°14'0 0.0
2016-Jun-12 11:14S 26°45' E 153°14'0 0.0
2016-Jun-12 10:32S 26°45' E 153°14'0 0.1
2016-Jun-12 09:20S 26°45' E 153°14'  

Dump ship's entire track history